Time;durP1;ratioP1;P1;durP2;ratioP2;P2;SDS_P1;SDS_P2;PMS_P1;PMS_P2;Temp;Humidity;BMP_temperature;BMP_pressure;BME280_temperature;BME280_humidity;BME280_pressure;Samples;Min_cycle;Max_cycle;Signal;HPM_P1;HPM_P2
2022/07/14 00:01:51;;;;;;;0.43;0.43;;;;;21.20;98624.00;;;;5113746;28;20214;-70
2022/07/14 00:04:19;;;;;;;0.50;0.50;;;;;21.10;98612.00;;;;5113738;28;20217;-70
2022/07/14 00:06:46;;;;;;;0.43;0.43;;;;;21.10;98598.00;;;;5113702;28;20198;-70
2022/07/14 00:09:13;;;;;;;0.50;0.50;;;;;21.00;98602.00;;;;5113651;28;20195;-70
2022/07/14 00:11:40;;;;;;;1.53;1.17;;;;;21.00;98609.00;;;;5113672;28;20263;-70
2022/07/14 00:14:09;;;;;;;0.45;0.45;;;;;20.90;98604.00;;;;5095625;28;20278;-72
2022/07/14 00:16:36;;;;;;;0.40;0.40;;;;;20.90;98604.00;;;;5113578;28;20668;-73
2022/07/14 00:19:03;;;;;;;1.38;1.27;;;;;20.80;98612.00;;;;5113707;28;20221;-70
2022/07/14 00:21:32;;;;;;;0.60;0.60;;;;;20.70;98611.00;;;;5116057;28;20306;-70
2022/07/14 00:24:02;;;;;;;0.50;0.50;;;;;20.60;98613.00;;;;5117309;28;20217;-70
2022/07/14 00:26:29;;;;;;;0.70;0.70;;;;;20.40;98611.00;;;;5116987;28;20190;-70
2022/07/14 00:28:58;;;;;;;0.50;0.50;;;;;20.40;98608.00;;;;5117056;28;20209;-70
2022/07/14 00:31:25;;;;;;;0.70;0.70;;;;;20.30;98612.00;;;;5117148;28;20197;-71
2022/07/14 00:33:52;;;;;;;0.73;0.73;;;;;20.30;98608.00;;;;5117106;28;20716;-70
2022/07/14 00:36:21;;;;;;;0.50;0.50;;;;;20.30;98608.00;;;;5117054;28;20190;-70
2022/07/14 00:38:48;;;;;;;0.70;0.70;;;;;20.20;98611.00;;;;5116983;28;20224;-70
2022/07/14 00:41:17;;;;;;;0.50;0.50;;;;;20.20;98604.00;;;;5116830;28;20669;-70
2022/07/14 00:43:44;;;;;;;0.50;0.50;;;;;20.20;98610.00;;;;5116742;28;20218;-70
2022/07/14 00:46:11;;;;;;;0.50;0.50;;;;;20.20;98600.00;;;;5116881;28;20216;-70
2022/07/14 00:48:38;;;;;;;0.40;0.40;;;;;20.10;98603.00;;;;5116779;28;20582;-70
2022/07/14 00:51:05;;;;;;;0.50;0.50;;;;;20.10;98595.00;;;;5116721;28;20263;-70
2022/07/14 00:53:32;;;;;;;0.50;0.50;;;;;20.00;98597.00;;;;5116712;28;20198;-71
2022/07/14 00:55:59;;;;;;;0.80;0.80;;;;;20.00;98598.00;;;;5116496;28;20228;-70
2022/07/14 00:58:27;;;;;;;0.50;0.50;;;;;19.90;98590.00;;;;5116609;28;20201;-70
2022/07/14 01:00:53;;;;;;;0.75;0.75;;;;;19.90;98601.00;;;;5116496;28;20221;-70
2022/07/14 01:03:22;;;;;;;0.50;0.50;;;;;19.80;98595.00;;;;5116459;28;20297;-70
2022/07/14 01:05:49;;;;;;;0.43;0.43;;;;;19.80;98595.00;;;;5116398;28;20198;-70
2022/07/14 01:08:16;;;;;;;1.77;0.90;;;;;19.90;98591.00;;;;5116484;28;20494;-70
2022/07/14 01:10:43;;;;;;;0.67;0.67;;;;;19.80;98592.00;;;;5098333;28;20246;-70
2022/07/14 01:13:09;;;;;;;0.50;0.50;;;;;19.70;98599.00;;;;5116206;28;20373;-70
2022/07/14 01:15:39;;;;;;;0.60;0.60;;;;;19.60;98604.00;;;;5116347;28;20409;-70
2022/07/14 01:18:08;;;;;;;0.67;0.67;;;;;19.50;98602.00;;;;5116228;28;20222;-70
2022/07/14 01:20:35;;;;;;;0.50;0.50;;;;;19.30;98609.00;;;;5098286;28;20568;-70
2022/07/14 01:23:03;;;;;;;0.73;0.73;;;;;19.20;98605.00;;;;5116086;28;20221;-70
2022/07/14 01:25:30;;;;;;;0.50;0.50;;;;;19.30;98608.00;;;;5116233;28;20277;-70
2022/07/14 01:27:57;;;;;;;0.50;0.50;;;;;19.20;98609.00;;;;5116279;28;20338;-70
2022/07/14 01:30:24;;;;;;;1.33;1.23;;;;;19.00;98608.00;;;;5116139;28;20221;-70
2022/07/14 01:32:51;;;;;;;0.47;0.47;;;;;18.90;98601.00;;;;5115237;28;20213;-70
2022/07/14 01:35:18;;;;;;;0.70;0.70;;;;;18.90;98597.00;;;;5115968;28;20217;-70
2022/07/14 01:37:48;;;;;;;0.50;0.50;;;;;18.90;98591.00;;;;5115941;28;20280;-70
2022/07/14 01:40:15;;;;;;;0.50;0.50;;;;;18.90;98591.00;;;;5115753;28;20248;-70
2022/07/14 01:42:42;;;;;;;0.40;0.40;;;;;18.90;98596.00;;;;5115897;28;20230;-70
2022/07/14 01:45:12;;;;;;;0.47;0.47;;;;;18.80;98592.00;;;;5097777;28;20221;-70
2022/07/14 01:47:39;;;;;;;0.50;0.50;;;;;18.80;98593.00;;;;5115932;28;20193;-70
2022/07/14 01:50:07;;;;;;;0.50;0.50;;;;;18.70;98596.00;;;;5098017;28;20205;-70
2022/07/14 01:52:36;;;;;;;0.50;0.50;;;;;18.60;98584.00;;;;5115821;28;20263;-70
2022/07/14 01:55:03;;;;;;;0.50;0.50;;;;;18.60;98585.00;;;;5115833;28;20197;-70
2022/07/14 01:57:30;;;;;;;0.60;0.60;;;;;18.50;98579.00;;;;5115653;28;20240;-70
2022/07/14 01:59:57;;;;;;;0.50;0.50;;;;;18.40;98576.00;;;;5115811;28;20204;-72
2022/07/14 02:02:24;;;;;;;1.33;1.00;;;;;18.40;98586.00;;;;5097738;28;20225;-71
2022/07/14 02:04:50;;;;;;;0.50;0.50;;;;;18.30;98580.00;;;;5115815;28;20281;-70
2022/07/14 02:07:17;;;;;;;0.63;0.63;;;;;18.30;98575.00;;;;5097768;28;20559;-70
2022/07/14 02:12:32;;;;;;;0.50;0.50;;;;;18.30;98574.00;;;;5097804;28;20200;-70
2022/07/14 02:14:59;;;;;;;0.70;0.70;;;;;18.20;98581.00;;;;5115501;28;20198;-70
2022/07/14 02:17:26;;;;;;;0.50;0.50;;;;;18.20;98576.00;;;;5115472;28;20190;-70
2022/07/14 02:19:55;;;;;;;0.67;0.67;;;;;18.10;98570.00;;;;5115333;28;20249;-70
2022/07/14 02:22:22;;;;;;;0.67;0.67;;;;;18.10;98570.00;;;;5115385;28;20214;-69
2022/07/14 02:24:51;;;;;;;0.77;0.77;;;;;18.00;98568.00;;;;5115288;28;20249;-70
2022/07/14 02:27:18;;;;;;;0.57;0.57;;;;;17.90;98561.00;;;;5097408;28;20201;-70
2022/07/14 02:29:48;;;;;;;0.50;0.50;;;;;17.90;98555.00;;;;5115270;28;20218;-70
2022/07/14 02:32:15;;;;;;;0.67;0.67;;;;;17.80;98564.00;;;;5115187;28;20223;-70
2022/07/14 02:34:42;;;;;;;0.50;0.50;;;;;17.70;98563.00;;;;5115186;28;20204;-70
2022/07/14 02:37:08;;;;;;;0.60;0.60;;;;;17.70;98565.00;;;;5097155;28;20222;-70
2022/07/14 02:39:37;;;;;;;0.50;0.50;;;;;17.70;98558.00;;;;5115146;28;20205;-70
2022/07/14 02:42:07;;;;;;;0.67;0.67;;;;;17.60;98566.00;;;;5114974;28;20231;-70
2022/07/14 02:44:36;;;;;;;0.60;0.60;;;;;17.60;98569.00;;;;5115029;28;20565;-70
2022/07/14 02:47:03;;;;;;;0.53;0.53;;;;;17.60;98568.00;;;;5114910;28;20191;-70
2022/07/14 02:49:30;;;;;;;1.30;0.70;;;;;17.50;98559.00;;;;5115007;28;20197;-70
2022/07/14 02:51:57;;;;;;;0.60;0.60;;;;;17.40;98556.00;;;;5114959;28;20263;-70
2022/07/14 02:54:27;;;;;;;0.70;0.70;;;;;17.40;98556.00;;;;5114764;28;20581;-70
2022/07/14 02:56:54;;;;;;;0.70;0.70;;;;;17.40;98553.00;;;;5114861;28;20705;-70
2022/07/14 02:59:21;;;;;;;1.57;1.47;;;;;17.40;98555.00;;;;5114874;28;20230;-69
2022/07/14 03:01:47;;;;;;;0.53;0.53;;;;;17.40;98557.00;;;;5114747;28;20240;-70
2022/07/14 03:04:15;;;;;;;0.57;0.57;;;;;17.40;98553.00;;;;5114734;28;20224;-70
2022/07/14 03:06:42;;;;;;;0.60;0.60;;;;;17.40;98536.00;;;;5096715;28;20206;-68
2022/07/14 03:09:08;;;;;;;0.60;0.60;;;;;17.40;98536.00;;;;5114720;28;20202;-70
2022/07/14 03:11:35;;;;;;;0.50;0.50;;;;;17.40;98538.00;;;;5114550;28;20194;-70
2022/07/14 03:14:02;;;;;;;0.53;0.53;;;;;17.30;98549.00;;;;5114436;28;20248;-70
2022/07/14 03:16:29;;;;;;;0.63;0.63;;;;;17.10;98548.00;;;;5114410;28;20218;-70
2022/07/14 03:18:56;;;;;;;2.93;1.13;;;;;17.20;98536.00;;;;5096452;28;20286;-70
2022/07/14 03:21:23;;;;;;;0.70;0.70;;;;;17.20;98545.00;;;;5114211;28;20281;-70
2022/07/14 03:23:50;;;;;;;0.80;0.80;;;;;17.20;98547.00;;;;5114432;28;20190;-70
2022/07/14 03:26:17;;;;;;;0.60;0.60;;;;;17.10;98546.00;;;;5119658;28;20222;-70
2022/07/14 03:28:43;;;;;;;0.70;0.70;;;;;17.10;98542.00;;;;5115097;28;20625;-70
2022/07/14 03:31:10;;;;;;;0.50;0.50;;;;;17.20;98539.00;;;;5114689;28;20233;-70
2022/07/14 03:33:37;;;;;;;0.63;0.63;;;;;17.20;98541.00;;;;5114693;28;20660;-70
2022/07/14 03:36:06;;;;;;;1.20;1.20;;;;;17.20;98530.00;;;;5114365;28;20274;-70
2022/07/14 03:38:34;;;;;;;0.90;0.90;;;;;17.20;98537.00;;;;5114348;28;20200;-70
2022/07/14 03:41:03;;;;;;;0.63;0.63;;;;;17.20;98542.00;;;;5114059;28;20242;-70
2022/07/14 03:43:30;;;;;;;1.30;0.70;;;;;17.10;98547.00;;;;5114384;28;20350;-70
2022/07/14 03:45:57;;;;;;;0.50;0.50;;;;;17.10;98550.00;;;;5096496;28;20190;-70
2022/07/14 03:48:24;;;;;;;0.70;0.70;;;;;17.00;98557.00;;;;5114201;28;20622;-70
2022/07/14 03:50:51;;;;;;;0.53;0.53;;;;;17.10;98550.00;;;;5114227;28;20622;-70
2022/07/14 03:53:18;;;;;;;0.70;0.70;;;;;17.10;98558.00;;;;5096289;28;20209;-72
2022/07/14 03:55:48;;;;;;;0.70;0.70;;;;;17.20;98558.00;;;;5117597;28;20193;-70
2022/07/14 03:58:15;;;;;;;0.67;0.67;;;;;17.20;98557.00;;;;5120905;28;20285;-70
2022/07/14 04:00:42;;;;;;;0.60;0.60;;;;;17.30;98564.00;;;;5120640;28;20193;-70
2022/07/14 04:03:09;;;;;;;0.70;0.70;;;;;17.30;98561.00;;;;5120488;28;20226;-69
2022/07/14 04:05:36;;;;;;;0.90;0.90;;;;;17.30;98554.00;;;;5120547;28;20494;-70
2022/07/14 04:08:03;;;;;;;0.60;0.60;;;;;17.20;98566.00;;;;5120595;28;20196;-70
2022/07/14 04:10:29;;;;;;;0.60;0.60;;;;;17.10;98560.00;;;;5120473;28;20340;-70
2022/07/14 04:12:57;;;;;;;0.60;0.60;;;;;17.10;98562.00;;;;5120400;28;20231;-70
2022/07/14 04:15:24;;;;;;;1.80;0.80;;;;;17.20;98554.00;;;;5120411;28;20251;-70
2022/07/14 04:17:51;;;;;;;0.50;0.50;;;;;17.10;98560.00;;;;5120292;28;20222;-70
2022/07/14 04:20:17;;;;;;;0.77;0.77;;;;;17.10;98562.00;;;;5120415;28;20186;-69
2022/07/14 04:22:44;;;;;;;0.60;0.60;;;;;17.20;98559.00;;;;5120232;28;20290;-69
2022/07/14 04:25:12;;;;;;;0.63;0.63;;;;;17.20;98554.00;;;;5120317;28;20198;-69
2022/07/14 04:27:40;;;;;;;0.77;0.77;;;;;17.20;98561.00;;;;5120215;28;20300;-69
2022/07/14 04:30:09;;;;;;;0.60;0.60;;;;;17.20;98562.00;;;;5120262;28;20220;-69
2022/07/14 04:32:36;;;;;;;0.60;0.60;;;;;17.20;98567.00;;;;5120145;28;20231;-69
2022/07/14 04:35:03;;;;;;;0.70;0.70;;;;;17.30;98563.00;;;;5120151;28;20194;-69
2022/07/14 04:37:30;;;;;;;1.70;1.33;;;;;17.50;98561.00;;;;5120031;28;20226;-69
2022/07/14 04:39:57;;;;;;;0.60;0.60;;;;;17.40;98561.00;;;;5120198;28;20194;-71
2022/07/14 04:42:24;;;;;;;0.50;0.50;;;;;17.40;98558.00;;;;5120059;28;20228;-71
2022/07/14 04:44:51;;;;;;;0.60;0.60;;;;;17.40;98569.00;;;;5120247;28;20190;-70
2022/07/14 04:47:19;;;;;;;1.37;1.27;;;;;17.60;98572.00;;;;5120011;28;20217;-69
2022/07/14 04:52:30;;;;;;;0.80;0.80;;;;;17.60;98558.00;;;;5119995;27;20229;-70
2022/07/14 04:54:57;;;;;;;0.70;0.70;;;;;17.60;98557.00;;;;5120034;28;20194;-69
2022/07/14 04:57:24;;;;;;;0.80;0.80;;;;;17.60;98563.00;;;;5119844;28;20201;-69
2022/07/14 04:59:51;;;;;;;3.13;1.70;;;;;17.70;98568.00;;;;5119983;28;20285;-70
2022/07/14 05:02:18;;;;;;;0.70;0.70;;;;;17.80;98575.00;;;;5119527;28;20218;-70
2022/07/14 05:04:47;;;;;;;0.50;0.50;;;;;17.90;98566.00;;;;5119883;28;20229;-70
2022/07/14 05:07:17;;;;;;;0.40;0.40;;;;;18.00;98557.00;;;;5116699;28;20198;-70
2022/07/14 05:09:46;;;;;;;0.60;0.60;;;;;18.00;98559.00;;;;5116549;28;20202;-70
2022/07/14 05:12:17;;;;;;;1.00;0.90;;;;;18.10;98565.00;;;;5116499;28;20194;-70
2022/07/14 05:14:44;;;;;;;0.80;0.80;;;;;18.10;98563.00;;;;5116505;28;20269;-70
2022/07/14 05:17:11;;;;;;;0.60;0.60;;;;;18.10;98563.00;;;;5116370;28;20212;-70
2022/07/14 05:19:39;;;;;;;1.60;0.87;;;;;18.20;98557.00;;;;5116365;28;20218;-70
2022/07/14 05:22:06;;;;;;;0.90;0.90;;;;;18.30;98554.00;;;;5116162;28;20222;-70
2022/07/14 05:24:32;;;;;;;0.50;0.50;;;;;18.40;98557.00;;;;5116184;28;20190;-70
2022/07/14 05:27:01;;;;;;;0.50;0.50;;;;;18.50;98559.00;;;;5116136;28;20185;-70
2022/07/14 05:29:28;;;;;;;0.73;0.73;;;;;18.60;98550.00;;;;5116062;28;20222;-70
2022/07/14 05:31:57;;;;;;;0.60;0.60;;;;;18.70;98548.00;;;;5116038;28;20530;-70
2022/07/14 05:34:23;;;;;;;0.47;0.47;;;;;18.70;98543.00;;;;5115933;28;20278;-70
2022/07/14 05:36:51;;;;;;;0.97;0.97;;;;;18.80;98552.00;;;;5116137;28;20200;-70
2022/07/14 05:39:18;;;;;;;0.90;0.90;;;;;19.10;98545.00;;;;5115993;28;20225;-70
2022/07/14 05:41:47;;;;;;;0.63;0.63;;;;;19.20;98537.00;;;;5115958;28;20186;-70
2022/07/14 05:44:14;;;;;;;0.70;0.70;;;;;19.30;98531.00;;;;5115976;28;20232;-70
2022/07/14 05:46:40;;;;;;;0.73;0.73;;;;;19.40;98535.00;;;;5115826;28;20209;-70
2022/07/14 05:49:07;;;;;;;0.77;0.77;;;;;19.40;98534.00;;;;5115915;28;20233;-70
2022/07/14 05:51:34;;;;;;;0.50;0.50;;;;;19.60;98528.00;;;;5115913;28;20194;-70
2022/07/14 05:54:02;;;;;;;0.67;0.67;;;;;19.80;98527.00;;;;5115828;28;20213;-70
2022/07/14 05:56:28;;;;;;;0.50;0.50;;;;;19.90;98534.00;;;;5115760;28;20220;-70
2022/07/14 05:58:58;;;;;;;0.50;0.50;;;;;20.10;98531.00;;;;5097662;28;20222;-70
2022/07/14 06:01:25;;;;;;;0.50;0.50;;;;;20.20;98536.00;;;;5115769;28;20244;-70
2022/07/14 06:03:56;;;;;;;0.40;0.40;;;;;20.40;98536.00;;;;5097574;28;20229;-71
2022/07/14 06:06:24;;;;;;;0.73;0.73;;;;;20.50;98536.00;;;;5115744;28;20226;-69
2022/07/14 06:08:51;;;;;;;0.83;0.60;;;;;20.70;98530.00;;;;5115544;28;20255;-70
2022/07/14 06:11:20;;;;;;;1.00;0.93;;;;;20.90;98526.00;;;;5115560;28;20277;-70
2022/07/14 06:13:47;;;;;;;0.70;0.70;;;;;21.00;98531.00;;;;5115494;28;20206;-68
2022/07/14 06:16:14;;;;;;;0.60;0.60;;;;;21.20;98538.00;;;;5097567;28;20204;-69
2022/07/14 06:18:41;;;;;;;1.55;1.08;;;;;21.30;98535.00;;;;5115055;28;20272;-69
2022/07/14 06:21:08;;;;;;;0.82;0.82;;;;;21.50;98525.00;;;;5115296;28;20218;-69
2022/07/14 06:23:35;;;;;;;0.50;0.50;;;;;21.60;98528.00;;;;5115203;28;20337;-68
2022/07/14 06:26:08;;;;;;;0.50;0.50;;;;;21.70;98536.00;;;;5115074;28;20228;-71
2022/07/14 06:28:36;;;;;;;0.43;0.43;;;;;21.80;98522.00;;;;5115091;28;20297;-69
2022/07/14 06:31:03;;;;;;;0.50;0.50;;;;;22.00;98520.00;;;;5115049;28;20198;-70
2022/07/14 06:33:30;;;;;;;0.60;0.60;;;;;22.10;98519.00;;;;5115103;28;20262;-71
2022/07/14 06:35:59;;;;;;;0.50;0.50;;;;;22.20;98518.00;;;;5115074;28;20198;-70
2022/07/14 06:38:26;;;;;;;0.82;0.82;;;;;22.40;98509.00;;;;5115216;28;20300;-71
2022/07/14 06:40:53;;;;;;;0.63;0.63;;;;;22.50;98512.00;;;;5115121;28;20656;-71
2022/07/14 06:43:21;;;;;;;1.02;1.02;;;;;22.60;98511.00;;;;5114871;28;20232;-71
2022/07/14 06:45:51;;;;;;;0.55;0.55;;;;;22.70;98514.00;;;;5115080;28;20208;-70
2022/07/14 06:48:19;;;;;;;0.73;0.73;;;;;22.70;98518.00;;;;5115001;28;20659;-70
2022/07/14 06:50:46;;;;;;;1.00;1.00;;;;;22.80;98515.00;;;;5114839;28;20224;-71
2022/07/14 06:53:13;;;;;;;0.60;0.60;;;;;22.90;98510.00;;;;5114958;28;20186;-71
2022/07/14 06:55:40;;;;;;;0.60;0.60;;;;;23.00;98511.00;;;;5114787;28;20221;-71
2022/07/14 06:58:07;;;;;;;0.77;0.77;;;;;23.20;98501.00;;;;5114791;28;20202;-71
2022/07/14 07:00:34;;;;;;;0.65;0.65;;;;;23.30;98502.00;;;;5114947;28;20229;-71
2022/07/14 07:03:01;;;;;;;0.60;0.60;;;;;23.50;98496.00;;;;5114806;28;20675;-71
2022/07/14 07:08:13;;;;;;;0.65;0.65;;;;;23.80;98501.00;;;;5097112;28;20558;-71
2022/07/14 07:10:40;;;;;;;0.70;0.70;;;;;24.00;98498.00;;;;5114691;28;20196;-71
2022/07/14 07:13:08;;;;;;;1.55;0.93;;;;;24.30;98494.00;;;;5114489;28;20286;-71
2022/07/14 07:15:37;;;;;;;0.43;0.43;;;;;24.60;98487.00;;;;5114581;28;20198;-72
2022/07/14 07:18:08;;;;;;;0.60;0.60;;;;;24.70;98486.00;;;;5114650;28;20348;-71
2022/07/14 07:20:35;;;;;;;0.45;0.45;;;;;24.80;98492.00;;;;5114629;28;20306;-72
2022/07/14 07:23:05;;;;;;;0.60;0.60;;;;;24.90;98499.00;;;;5096525;28;20224;-71
2022/07/14 07:25:32;;;;;;;0.60;0.60;;;;;25.10;98489.00;;;;5114483;28;20204;-71
2022/07/14 07:28:00;;;;;;;0.50;0.50;;;;;25.30;98488.00;;;;5114376;28;20220;-71
2022/07/14 07:30:27;;;;;;;0.70;0.70;;;;;25.40;98480.00;;;;5113408;28;20233;-71
2022/07/14 07:32:54;;;;;;;0.50;0.50;;;;;25.60;98486.00;;;;5096390;28;20522;-72
2022/07/14 07:35:24;;;;;;;0.82;0.82;;;;;25.90;98485.00;;;;5114242;28;20227;-71
2022/07/14 07:37:51;;;;;;;0.55;0.55;;;;;26.10;98481.00;;;;5114270;28;20213;-70
2022/07/14 07:40:17;;;;;;;0.50;0.50;;;;;26.20;98480.00;;;;5096274;28;20198;-70
2022/07/14 07:42:46;;;;;;;0.70;0.70;;;;;26.30;98477.00;;;;5096144;28;20241;-70
2022/07/14 07:45:13;;;;;;;0.60;0.60;;;;;26.40;98473.00;;;;5114155;28;20522;-71
2022/07/14 07:47:40;;;;;;;1.00;0.80;;;;;26.60;98462.00;;;;5113934;28;20221;-70
2022/07/14 07:50:08;;;;;;;0.88;0.88;;;;;26.70;98470.00;;;;5114027;28;20213;-70
2022/07/14 07:52:36;;;;;;;0.52;0.52;;;;;26.90;98469.00;;;;5114005;28;20215;-70
2022/07/14 07:55:08;;;;;;;0.50;0.50;;;;;26.90;98465.00;;;;5096365;28;20293;-71
2022/07/14 07:57:35;;;;;;;0.60;0.60;;;;;26.90;98456.00;;;;5114066;28;20198;-70
2022/07/14 08:00:03;;;;;;;0.60;0.60;;;;;27.00;98463.00;;;;5113987;28;20193;-73
2022/07/14 08:02:30;;;;;;;0.52;0.52;;;;;27.10;98464.00;;;;5095986;28;20271;-73
2022/07/14 08:04:57;;;;;;;0.80;0.80;;;;;27.20;98460.00;;;;5113791;28;20258;-71
2022/07/14 08:07:24;;;;;;;6.80;1.27;;;;;27.10;98453.00;;;;5113899;28;20664;-72
2022/07/14 08:09:54;;;;;;;0.73;0.73;;;;;27.20;98448.00;;;;5113818;28;20193;-71
2022/07/14 08:12:23;;;;;;;0.60;0.60;;;;;27.30;98449.00;;;;5113823;28;20198;-71
2022/07/14 08:14:51;;;;;;;0.70;0.70;;;;;27.30;98450.00;;;;5113825;28;20197;-71
2022/07/14 08:17:20;;;;;;;2.08;1.23;;;;;27.30;98450.00;;;;5113687;28;20626;-71
2022/07/14 08:19:47;;;;;;;0.68;0.68;;;;;27.30;98434.00;;;;5113591;28;20530;-69
2022/07/14 08:22:15;;;;;;;0.60;0.60;;;;;27.40;98443.00;;;;5095673;28;20230;-71
2022/07/14 08:24:41;;;;;;;1.00;1.00;;;;;27.40;98435.00;;;;5113650;28;20190;-71
2022/07/14 08:27:09;;;;;;;0.57;0.57;;;;;27.40;98442.00;;;;5095676;28;20626;-71
2022/07/14 08:29:36;;;;;;;0.57;0.57;;;;;27.50;98437.00;;;;5095695;28;20285;-71
2022/07/14 08:32:03;;;;;;;0.57;0.57;;;;;27.50;98430.00;;;;5113480;28;20585;-70
2022/07/14 08:34:30;;;;;;;0.68;0.68;;;;;27.70;98435.00;;;;5113509;28;20220;-70
2022/07/14 08:36:58;;;;;;;0.90;0.90;;;;;27.80;98427.00;;;;5095631;28;20255;-70
2022/07/14 08:39:25;;;;;;;0.57;0.57;;;;;27.90;98422.00;;;;5095417;28;20222;-71
2022/07/14 08:41:55;;;;;;;0.60;0.60;;;;;27.80;98414.00;;;;5114918;28;20206;-71
2022/07/14 08:44:23;;;;;;;0.93;0.93;;;;;28.00;98414.00;;;;5116974;28;20217;-71
2022/07/14 08:46:53;;;;;;;0.55;0.55;;;;;28.00;98419.00;;;;5117012;28;20227;-71
2022/07/14 08:49:21;;;;;;;0.73;0.73;;;;;28.00;98420.00;;;;5116763;28;20255;-70
2022/07/14 08:51:49;;;;;;;0.60;0.60;;;;;28.10;98413.00;;;;5116757;28;20261;-70
2022/07/14 08:54:18;;;;;;;0.80;0.80;;;;;28.20;98420.00;;;;5116859;28;20206;-71
2022/07/14 08:56:45;;;;;;;1.17;1.13;;;;;28.20;98413.00;;;;5116684;28;20680;-71
2022/07/14 08:59:12;;;;;;;0.60;0.60;;;;;28.20;98403.00;;;;5116829;28;20201;-71
2022/07/14 09:01:39;;;;;;;0.75;0.75;;;;;28.30;98398.00;;;;5116730;28;20201;-71
2022/07/14 09:04:09;;;;;;;0.60;0.60;;;;;28.30;98407.00;;;;5116561;28;20300;-70
2022/07/14 09:06:53;;;;;;;0.85;0.75;;;;;28.40;98408.00;;;;5098416;28;20204;-71
2022/07/14 09:09:24;;;;;;;0.70;0.70;;;;;28.50;98399.00;;;;5116604;28;20229;-70
2022/07/14 09:11:54;;;;;;;0.60;0.60;;;;;28.50;98394.00;;;;5116599;28;20205;-70
2022/07/14 09:14:21;;;;;;;0.82;0.82;;;;;28.80;98402.00;;;;5098692;28;20520;-70
2022/07/14 09:16:49;;;;;;;0.60;0.60;;;;;28.90;98391.00;;;;5116493;28;20273;-69
2022/07/14 09:19:16;;;;;;;1.27;1.23;;;;;28.90;98390.00;;;;5098490;28;20202;-70
2022/07/14 09:21:51;;;;;;;1.85;1.00;;;;;29.00;98395.00;;;;5116411;28;20187;-72
2022/07/14 09:24:22;;;;;;;0.60;0.60;;;;;29.20;98394.00;;;;5116447;28;20229;-72
2022/07/14 09:26:51;;;;;;;0.70;0.70;;;;;29.20;98390.00;;;;5116321;28;20665;-71
2022/07/14 09:29:19;;;;;;;0.65;0.65;;;;;29.20;98383.00;;;;5116327;28;20186;-71
2022/07/14 09:31:47;;;;;;;0.70;0.70;;;;;29.40;98378.00;;;;5116211;28;20218;-69
2022/07/14 09:34:28;;;;;;;0.70;0.70;;;;;29.60;98381.00;;;;5116280;28;20244;-69
2022/07/14 09:37:11;;;;;;;0.55;0.55;;;;;29.40;98380.00;;;;5116201;28;20210;-70
2022/07/14 09:39:51;;;;;;;4.15;0.65;;;;;29.60;98380.00;;;;5098053;28;20558;-71
2022/07/14 09:42:20;;;;;;;0.77;0.77;;;;;29.50;98377.00;;;;5116085;28;20301;-70
2022/07/14 09:44:47;;;;;;;0.68;0.68;;;;;29.50;98364.00;;;;5115913;28;20328;-72
2022/07/14 09:47:14;;;;;;;0.60;0.60;;;;;29.50;98371.00;;;;5116270;28;20508;-70
2022/07/14 09:49:44;;;;;;;0.50;0.50;;;;;29.70;98369.00;;;;5097860;28;20240;-69
2022/07/14 09:52:11;;;;;;;0.40;0.40;;;;;29.90;98369.00;;;;5116009;28;20194;-69
2022/07/14 09:54:44;;;;;;;0.70;0.70;;;;;29.80;98366.00;;;;5115152;28;20206;-70
2022/07/14 09:57:21;;;;;;;0.80;0.80;;;;;30.10;98362.00;;;;5097931;28;20588;-69
2022/07/14 09:59:49;;;;;;;0.60;0.60;;;;;30.20;98360.00;;;;5097914;28;20189;-70
2022/07/14 10:02:19;;;;;;;0.60;0.60;;;;;30.30;98362.00;;;;5115815;28;20218;-71
2022/07/14 10:04:50;;;;;;;0.70;0.70;;;;;30.40;98368.00;;;;5115770;28;20194;-72
2022/07/14 10:07:18;;;;;;;0.90;0.90;;;;;30.60;98363.00;;;;5115582;28;20296;-71
2022/07/14 10:09:49;;;;;;;0.60;0.60;;;;;30.70;98357.00;;;;5115638;28;20625;-71
2022/07/14 10:12:17;;;;;;;0.70;0.70;;;;;30.70;98354.00;;;;5115559;28;20197;-72
2022/07/14 10:14:44;;;;;;;0.63;0.63;;;;;31.00;98352.00;;;;5115549;28;20269;-72
2022/07/14 10:17:12;;;;;;;1.70;0.82;;;;;31.00;98353.00;;;;5115530;28;20220;-72
2022/07/14 10:19:41;;;;;;;1.35;1.25;;;;;31.10;98359.00;;;;5115379;28;20213;-71
2022/07/14 10:22:10;;;;;;;0.70;0.70;;;;;31.10;98347.00;;;;5115426;28;20212;-71
2022/07/14 10:24:40;;;;;;;0.60;0.60;;;;;31.20;98351.00;;;;5115315;28;20218;-69
2022/07/14 10:27:08;;;;;;;0.70;0.70;;;;;31.20;98338.00;;;;5115424;28;20307;-72
2022/07/14 10:29:35;;;;;;;0.60;0.60;;;;;31.40;98339.00;;;;5115382;28;20194;-72
2022/07/14 10:32:18;;;;;;;0.60;0.60;;;;;31.60;98342.00;;;;5115464;28;20272;-72
2022/07/14 10:34:53;;;;;;;0.77;0.77;;;;;31.60;98332.00;;;;5115487;28;20618;-70
2022/07/14 10:37:27;;;;;;;1.08;1.08;;;;;31.70;98331.00;;;;5117065;28;20296;-71
2022/07/14 10:40:02;;;;;;;0.80;0.80;;;;;31.80;98325.00;;;;5115320;28;20280;-70
2022/07/14 10:42:39;;;;;;;0.50;0.50;;;;;31.90;98322.00;;;;5115803;28;20620;-71
2022/07/14 10:45:07;;;;;;;0.80;0.80;;;;;32.10;98320.00;;;;5117607;28;20174;-72
2022/07/14 10:47:48;;;;;;;0.70;0.70;;;;;32.10;98322.00;;;;5097278;28;20236;-71
2022/07/14 10:50:20;;;;;;;0.90;0.90;;;;;32.30;98314.00;;;;5115321;28;20698;-72
2022/07/14 10:52:57;;;;;;;0.77;0.77;;;;;32.30;98321.00;;;;5115319;28;20198;-70
2022/07/14 10:55:34;;;;;;;0.70;0.70;;;;;32.10;98315.00;;;;5115197;28;20193;-71
2022/07/14 10:58:28;;;;;;;2.55;0.90;;;;;32.20;98310.00;;;;5114964;28;20262;-70
2022/07/14 11:00:56;;;;;;;0.70;0.70;;;;;32.20;98301.00;;;;5114907;28;20713;-69
2022/07/14 11:03:24;;;;;;;0.80;0.80;;;;;32.30;98320.00;;;;5114761;28;20233;-70
2022/07/14 11:06:16;;;;;;;0.73;0.73;;;;;32.40;98315.00;;;;5113581;28;20228;-70
2022/07/14 11:09:02;;;;;;;0.80;0.80;;;;;32.30;98304.00;;;;5114753;28;20204;-69
2022/07/14 11:11:28;;;;;;;0.50;0.50;;;;;32.30;98306.00;;;;5113838;28;20301;-70
2022/07/14 11:14:07;;;;;;;1.00;1.00;;;;;32.40;98305.00;;;;5114636;28;20206;-71
2022/07/14 11:16:56;;;;;;;0.70;0.70;;;;;32.30;98308.00;;;;5114553;28;20174;-70
2022/07/14 11:19:27;;;;;;;0.80;0.80;;;;;32.40;98301.00;;;;5114575;28;20291;-71
2022/07/14 11:22:11;;;;;;;0.65;0.65;;;;;32.60;98295.00;;;;5114595;28;20201;-70
2022/07/14 11:24:48;;;;;;;0.80;0.80;;;;;32.60;98290.00;;;;5114581;28;20273;-71
2022/07/14 11:27:38;;;;;;;1.17;1.13;;;;;32.80;98300.00;;;;5096453;28;20602;-70
2022/07/14 11:30:32;;;;;;;0.60;0.60;;;;;32.80;98292.00;;;;5096282;28;20186;-72
2022/07/14 11:33:02;;;;;;;0.73;0.73;;;;;33.00;98295.00;;;;5055895;28;20300;-71
2022/07/14 11:38:26;;;;;;;1.17;1.15;;;;;33.10;98281.00;;;;5101044;28;20245;-71
2022/07/14 11:40:56;;;;;;;0.60;0.60;;;;;33.00;98274.00;;;;5114157;28;20327;-71
2022/07/14 11:43:43;;;;;;;0.90;0.90;;;;;33.20;98263.00;;;;5114058;28;20313;-72
2022/07/14 11:46:12;;;;;;;1.00;1.00;;;;;33.40;98260.00;;;;5113974;28;20535;-72
2022/07/14 11:48:42;;;;;;;0.60;0.60;;;;;33.50;98260.00;;;;5114136;28;20210;-72
2022/07/14 11:51:14;;;;;;;0.70;0.70;;;;;33.40;98256.00;;;;5114168;28;20197;-73
2022/07/14 11:53:42;;;;;;;4.57;1.02;;;;;33.60;98259.00;;;;5113924;28;20612;-70
2022/07/14 11:56:11;;;;;;;2.17;1.17;;;;;33.70;98249.00;;;;5113978;28;20252;-74
2022/07/14 11:58:39;;;;;;;0.60;0.60;;;;;34.20;98241.00;;;;5114009;28;20256;-73
2022/07/14 12:01:08;;;;;;;0.60;0.60;;;;;34.50;98234.00;;;;5114025;28;20529;-71
2022/07/14 12:03:35;;;;;;;0.63;0.63;;;;;34.70;98244.00;;;;5113748;28;20217;-71
2022/07/14 12:06:05;;;;;;;0.60;0.60;;;;;34.40;98246.00;;;;5113932;28;20242;-70
2022/07/14 12:08:36;;;;;;;6.03;1.05;;;;;34.00;98239.00;;;;5113909;28;20226;-72
2022/07/14 12:11:08;;;;;;;0.65;0.65;;;;;33.70;98239.00;;;;5113784;28;20194;-71
2022/07/14 12:13:46;;;;;;;1.60;0.95;;;;;33.90;98237.00;;;;5113849;28;20864;-72
2022/07/14 12:16:13;;;;;;;0.60;0.60;;;;;33.70;98236.00;;;;5114280;28;20680;-70
2022/07/14 12:18:40;;;;;;;0.90;0.90;;;;;34.10;98244.00;;;;5117434;28;20194;-70
2022/07/14 12:21:07;;;;;;;1.00;0.80;;;;;34.20;98234.00;;;;5117305;28;20214;-71
2022/07/14 12:23:34;;;;;;;0.60;0.60;;;;;34.30;98238.00;;;;5117316;28;20669;-72
2022/07/14 12:26:03;;;;;;;0.98;0.98;;;;;33.90;98238.00;;;;5117257;28;20186;-72
2022/07/14 12:28:32;;;;;;;0.70;0.70;;;;;33.80;98245.00;;;;5117352;28;20516;-71
2022/07/14 12:31:02;;;;;;;0.82;0.82;;;;;33.50;98249.00;;;;5117126;28;20340;-70
2022/07/14 12:33:35;;;;;;;1.50;1.40;;;;;33.20;98241.00;;;;5117088;28;20278;-72
2022/07/14 12:36:04;;;;;;;0.65;0.65;;;;;33.10;98243.00;;;;5117139;28;20190;-70
2022/07/14 12:38:33;;;;;;;0.60;0.60;;;;;32.90;98243.00;;;;5117196;28;20657;-70